CheckWX is a tool to help pilots better visualize weather data.  It is not intended as a substitute for an official pre-flight weather briefing.

13:59:20 UTC

CYHU METAR
Montréal / Saint-Hubert Airport
Montréal, Canada
Current

59 mins ago

CYHU 251300Z AUTO VRB02KT 9SM OVC010 06/03 A2996 RMK SLP147
Observed
Apr-25 @ 13:00 UTC
Wind
  • Variable at 2 KTS
Visibility
9 SM
Flight Rules
MVFR
Cloud Levels
  • Overcast at 1,000' AGL
Temperature
C / 43°F
Dewpoint
C / 37°F
Humidity
81%
Altimeter
29.96" Hg
Pressure
1014.52 hPa
Previous

2 hours ago

CYHU 251201Z AUTO 05003KT 9SM OVC012 05/03 A2996 RMK SLP148
Observed
Apr-25 @ 12:01 UTC
Wind
  • 050° at 3 KTS
Visibility
9 SM
Flight Rules
MVFR
Cloud Levels
  • Overcast at 1,200' AGL
Temperature
C / 41°F
Dewpoint
C / 37°F
Humidity
87%
Altimeter
29.96" Hg
Pressure
1014.52 hPa
Previous

2 hours ago

CYHU 251134Z AUTO VRB02KT 9SM -RA OVC014 04/03 A2996 RMK SLP147
Observed
Apr-25 @ 11:34 UTC
Wind
  • Variable at 2 KTS
Visibility
9 SM
Flight Rules
MVFR
Conditions
Light Rain
Cloud Levels
  • Overcast at 1,400' AGL
Temperature
C / 39°F
Dewpoint
C / 37°F
Humidity
93%
Altimeter
29.96" Hg
Pressure
1014.52 hPa